Time;durP1;ratioP1;P1;durP2;ratioP2;P2;SDS_P1;SDS_P2;PMS_P1;PMS_P2;Temp;Humidity;BMP_temperature;BMP_pressure;BME280_temperature;BME280_humidity;BME280_pressure;Samples;Min_cycle;Max_cycle;Signal;HPM_P1;HPM_P2
2022/10/25 00:00:42;;;;;;;14.70;8.23;;;;;;;11.74;100.00;100739.56;5038921;28;20662;-47
2022/10/25 00:03:09;;;;;;;13.13;7.63;;;;;;;11.73;100.00;100743.16;5038136;28;20257;-51
2022/10/25 00:05:35;;;;;;;14.82;7.22;;;;;;;11.66;100.00;100739.00;5041652;28;20698;-47
2022/10/25 00:08:01;;;;;;;12.75;7.38;;;;;;;11.77;100.00;100737.69;5043938;28;20191;-46
2022/10/25 00:10:26;;;;;;;14.82;8.18;;;;;;;11.80;100.00;100748.25;5043849;28;20270;-47
2022/10/25 00:12:52;;;;;;;17.27;7.47;;;;;;;11.76;100.00;100742.16;5041261;28;20230;-47
2022/10/25 00:15:18;;;;;;;14.75;7.63;;;;;;;11.71;100.00;100734.31;5041218;28;20431;-46
2022/10/25 00:17:43;;;;;;;15.55;7.53;;;;;;;11.72;100.00;100745.94;5041580;28;20191;-46
2022/10/25 00:20:10;;;;;;;17.27;7.75;;;;;;;11.69;100.00;100743.38;5041643;28;20202;-48
2022/10/25 00:22:36;;;;;;;14.60;8.13;;;;;;;11.66;100.00;100738.16;5039922;28;20229;-50
2022/10/25 00:25:02;;;;;;;13.73;7.78;;;;;;;11.68;100.00;100738.97;5041081;28;20211;-47
2022/10/25 00:27:27;;;;;;;14.57;7.80;;;;;;;11.64;100.00;100748.94;5026992;28;20200;-49
2022/10/25 00:29:53;;;;;;;11.25;7.72;;;;;;;11.72;100.00;100748.63;5026735;28;20306;-50
2022/10/25 00:32:19;;;;;;;17.50;8.20;;;;;;;11.72;100.00;100736.06;5041079;28;20258;-47
2022/10/25 00:34:44;;;;;;;15.52;8.02;;;;;;;11.85;100.00;100739.06;5039808;28;20207;-48
2022/10/25 00:37:10;;;;;;;12.65;8.38;;;;;;;11.80;100.00;100748.25;5040060;28;20673;-47
2022/10/25 00:39:35;;;;;;;14.95;7.80;;;;;;;11.80;100.00;100738.38;5040575;28;20180;-46
2022/10/25 00:42:01;;;;;;;14.30;7.38;;;;;;;11.84;100.00;100747.19;5039628;28;20274;-47
2022/10/25 00:44:39;;;;;;;14.18;7.53;;;;;;;11.85;100.00;100739.06;5040290;28;20266;-46
2022/10/25 00:47:44;;;;;;;15.50;7.47;;;;;;;11.86;100.00;100740.81;5039822;28;20195;-46
2022/10/25 00:50:17;;;;;;;16.70;8.02;;;;;;;11.89;100.00;100737.13;5038901;28;20663;-49
2022/10/25 00:52:46;;;;;;;11.98;8.13;;;;;;;11.95;100.00;100748.47;5035415;28;20249;-46
2022/10/25 00:55:15;;;;;;;13.60;8.40;;;;;;;11.95;100.00;100740.41;5040329;28;20266;-45
2022/10/25 00:57:48;;;;;;;16.77;8.45;;;;;;;12.02;100.00;100743.69;5035564;28;20554;-48
2022/10/25 01:00:14;;;;;;;20.30;8.88;;;;;;;12.00;100.00;100740.19;5036557;28;20226;-56
2022/10/25 01:02:39;;;;;;;13.95;8.00;;;;;;;12.03;100.00;100742.78;5039595;28;20212;-47
2022/10/25 01:05:06;;;;;;;19.05;8.02;;;;;;;12.04;100.00;100738.25;5040225;28;20637;-47
2022/10/25 01:07:32;;;;;;;14.27;7.65;;;;;;;12.06;100.00;100739.94;5039274;28;20164;-48
2022/10/25 01:09:57;;;;;;;16.80;8.70;;;;;;;12.09;100.00;100738.91;5039884;28;20621;-46
2022/10/25 01:12:23;;;;;;;17.00;7.75;;;;;;;12.11;100.00;100731.66;5038954;28;20173;-49
2022/10/25 01:14:50;;;;;;;16.70;7.35;;;;;;;12.11;100.00;100737.94;5035991;28;20203;-49
2022/10/25 01:17:41;;;;;;;17.27;7.68;;;;;;;12.11;100.00;100740.63;5035553;28;20541;-46
2022/10/25 01:20:55;;;;;;;19.23;7.93;;;;;;;12.15;100.00;100733.25;5039948;28;20183;-51
2022/10/25 01:23:38;;;;;;;16.77;7.70;;;;;;;12.16;100.00;100732.34;4993812;28;20231;-48
2022/10/25 01:26:18;;;;;;;17.83;7.78;;;;;;;12.13;100.00;100735.16;5019944;28;20194;-48
2022/10/25 01:29:03;;;;;;;19.02;7.95;;;;;;;12.14;100.00;100743.13;5037470;28;20648;-48
2022/10/25 01:31:29;;;;;;;14.90;6.80;;;;;;;12.18;100.00;100733.13;5039070;28;20748;-48
2022/10/25 01:34:01;;;;;;;18.63;6.88;;;;;;;12.18;100.00;100745.66;5038310;28;20223;-49
2022/10/25 01:36:43;;;;;;;20.67;7.20;;;;;;;12.16;100.00;100727.81;5037704;28;20249;-49
2022/10/25 01:39:15;;;;;;;16.48;6.60;;;;;;;12.18;100.00;100738.50;5039143;28;20183;-48
2022/10/25 01:41:44;;;;;;;20.45;7.15;;;;;;;12.20;100.00;100735.72;5035467;28;20210;-48
2022/10/25 01:44:31;;;;;;;18.63;6.70;;;;;;;12.18;100.00;100735.81;5037041;28;20211;-47
2022/10/25 01:47:19;;;;;;;16.88;6.35;;;;;;;12.18;100.00;100734.94;5035802;28;20289;-49
2022/10/25 01:50:00;;;;;;;18.52;6.85;;;;;;;12.16;100.00;100729.66;5037788;28;20215;-48
2022/10/25 01:52:26;;;;;;;21.63;7.30;;;;;;;12.20;100.00;100731.25;5035866;28;20207;-46
2022/10/25 01:54:52;;;;;;;20.05;6.18;;;;;;;12.25;100.00;100736.41;5037166;28;21021;-48
2022/10/25 01:57:23;;;;;;;17.35;6.45;;;;;;;12.16;100.00;100735.03;5037546;28;20289;-48
2022/10/25 02:00:04;;;;;;;14.25;5.45;;;;;;;12.16;100.00;100730.50;5024465;28;20213;-47
2022/10/25 02:03:05;;;;;;;24.05;6.32;;;;;;;12.16;100.00;100730.50;5038124;28;20207;-48
2022/10/25 02:05:49;;;;;;;23.60;5.78;;;;;;;12.14;100.00;100731.53;5036257;28;20196;-45
2022/10/25 02:08:38;;;;;;;15.48;5.10;;;;;;;12.10;100.00;100732.63;5042655;28;20646;-44
2022/10/25 02:11:24;;;;;;;18.27;5.13;;;;;;;12.05;100.00;100731.97;5040395;28;20187;-47
2022/10/25 02:13:55;;;;;;;15.85;5.05;;;;;;;11.98;100.00;100731.34;5046006;28;20630;-45
2022/10/25 02:16:25;;;;;;;13.88;4.85;;;;;;;11.95;100.00;100740.41;5024743;28;20184;-49
2022/10/25 02:18:57;;;;;;;15.75;4.72;;;;;;;11.90;100.00;100738.91;5042261;28;20179;-49
2022/10/25 02:21:24;;;;;;;15.00;4.70;;;;;;;11.84;100.00;100745.38;5037017;28;20608;-47
2022/10/25 02:23:52;;;;;;;16.05;4.65;;;;;;;11.79;100.00;100735.81;5035898;28;20206;-47
2022/10/25 02:26:20;;;;;;;18.92;4.50;;;;;;;11.82;100.00;100727.59;5036185;28;20188;-47
2022/10/25 02:28:46;;;;;;;17.83;4.45;;;;;;;11.75;100.00;100733.22;5035865;28;20172;-48
2022/10/25 02:31:18;;;;;;;14.88;4.72;;;;;;;11.69;100.00;100725.44;5036285;28;20184;-47
2022/10/25 02:33:45;;;;;;;24.50;5.65;;;;;;;11.66;100.00;100741.69;5035909;28;20274;-47
2022/10/25 02:36:14;;;;;;;21.95;5.50;;;;;;;11.63;100.00;100733.78;5035739;28;20369;-49
2022/10/25 02:38:40;;;;;;;12.20;4.45;;;;;;;11.62;100.00;100744.59;5035637;28;20167;-49
2022/10/25 02:41:06;;;;;;;15.07;4.78;;;;;;;11.70;100.00;100737.09;5036317;28;20646;-48
2022/10/25 02:43:32;;;;;;;19.58;5.20;;;;;;;11.60;100.00;100733.91;5037765;28;20215;-48
2022/10/25 02:45:58;;;;;;;15.80;5.03;;;;;;;11.64;100.00;100748.09;5029960;28;20631;-48
2022/10/25 02:48:24;;;;;;;16.58;6.00;;;;;;;11.59;100.00;100745.59;5035162;28;20211;-47
2022/10/25 02:50:49;;;;;;;14.20;5.90;;;;;;;11.58;100.00;100740.28;5034854;28;20191;-48
2022/10/25 02:53:15;;;;;;;21.15;6.65;;;;;;;11.52;100.00;100738.72;5036341;28;20172;-48
2022/10/25 02:55:40;;;;;;;19.98;6.95;;;;;;;11.45;100.00;100748.88;5037183;28;20288;-47
2022/10/25 02:58:06;;;;;;;22.20;8.13;;;;;;;11.47;100.00;100752.34;5035628;28;20183;-46
2022/10/25 03:00:31;;;;;;;17.35;6.65;;;;;;;11.50;100.00;100754.03;5030603;28;20210;-45
2022/10/25 03:02:57;;;;;;;19.75;7.25;;;;;;;11.47;100.00;100760.41;5030020;28;20592;-48
2022/10/25 03:05:22;;;;;;;19.15;8.10;;;;;;;11.44;100.00;100757.88;5030517;28;20192;-46
2022/10/25 03:07:47;;;;;;;19.13;8.10;;;;;;;11.43;100.00;100764.16;5030372;28;20348;-44
2022/10/25 03:10:13;;;;;;;21.60;8.43;;;;;;;11.47;100.00;100760.41;5030559;28;20165;-47
2022/10/25 03:12:38;;;;;;;18.25;8.50;;;;;;;11.49;100.00;100765.72;5030495;28;20160;-45
2022/10/25 03:15:04;;;;;;;25.77;8.80;;;;;;;11.48;100.00;100763.97;5012566;28;20212;-45
2022/10/25 03:17:30;;;;;;;20.60;9.50;;;;;;;11.51;100.00;100763.84;5030341;28;20194;-45
2022/10/25 03:19:55;;;;;;;16.30;8.23;;;;;;;11.55;100.00;100766.31;5029995;28;20526;-50
2022/10/25 03:22:21;;;;;;;18.73;9.23;;;;;;;11.49;100.00;100765.72;5030081;28;20724;-46
2022/10/25 03:24:46;;;;;;;18.73;9.70;;;;;;;11.52;100.00;100763.78;5030236;28;20226;-45
2022/10/25 03:27:12;;;;;;;21.02;9.88;;;;;;;11.50;100.00;100772.81;5030082;28;20234;-49
2022/10/25 03:29:37;;;;;;;19.98;9.93;;;;;;;11.53;100.00;100770.00;5030320;28;20622;-45
2022/10/25 03:32:04;;;;;;;18.42;9.95;;;;;;;11.54;100.00;100769.06;5012551;28;20196;-45
2022/10/25 03:34:30;;;;;;;22.67;10.73;;;;;;;11.55;100.00;100773.50;5034215;28;20696;-45
2022/10/25 03:36:56;;;;;;;24.30;10.25;;;;;;;11.57;100.00;100782.34;5012396;28;20417;-44
2022/10/25 03:39:22;;;;;;;28.65;11.15;;;;;;;11.58;100.00;100788.59;5043605;28;20198;-45
2022/10/25 03:41:47;;;;;;;19.67;10.30;;;;;;;11.61;100.00;100783.97;5042803;28;20227;-46
2022/10/25 03:44:13;;;;;;;24.40;10.82;;;;;;;11.63;100.00;100789.25;5033726;28;20257;-45
2022/10/25 03:46:39;;;;;;;21.17;10.23;;;;;;;11.62;100.00;100787.53;5033294;28;20243;-45
2022/10/25 03:49:05;;;;;;;20.70;11.10;;;;;;;11.65;100.00;100792.75;5034020;28;20238;-43
2022/10/25 03:51:30;;;;;;;20.83;11.93;;;;;;;11.62;100.00;100792.91;5033918;28;20391;-45
2022/10/25 03:53:55;;;;;;;20.00;11.55;;;;;;;11.62;100.00;100791.06;5032800;28;20202;-46
2022/10/25 03:56:21;;;;;;;27.10;12.00;;;;;;;11.63;100.00;100789.25;5033895;28;20218;-43
2022/10/25 03:58:46;;;;;;;20.05;11.55;;;;;;;11.65;100.00;100792.75;5000427;28;20241;-46
2022/10/25 04:01:12;;;;;;;21.73;10.98;;;;;;;11.65;100.00;100801.66;5053862;28;20175;-46
2022/10/25 04:03:37;;;;;;;23.70;12.50;;;;;;;11.71;100.00;100798.72;5032400;28;20172;-43
2022/10/25 04:06:03;;;;;;;26.70;12.88;;;;;;;11.68;100.00;100801.56;5034565;28;20232;-44
2022/10/25 04:08:28;;;;;;;22.50;13.60;;;;;;;11.72;100.00;100802.31;5053409;28;20890;-44
2022/10/25 04:10:53;;;;;;;28.95;13.38;;;;;;;11.69;100.00;100799.72;5048017;28;20168;-43
2022/10/25 04:13:19;;;;;;;24.45;13.13;;;;;;;11.70;100.00;100806.84;5033650;28;20180;-45
2022/10/25 04:15:44;;;;;;;21.35;13.00;;;;;;;11.73;100.00;100810.25;5045517;28;20278;-44
2022/10/25 04:18:10;;;;;;;23.98;13.40;;;;;;;11.74;100.00;100806.66;5049787;28;20607;-43
2022/10/25 04:20:35;;;;;;;22.73;13.05;;;;;;;11.76;100.00;100803.88;5044705;28;20176;-44
2022/10/25 04:23:01;;;;;;;30.35;14.20;;;;;;;11.78;100.00;100818.13;5053172;28;20704;-44
2022/10/25 04:25:27;;;;;;;22.88;13.07;;;;;;;11.80;100.00;100818.06;5042922;28;20666;-45
2022/10/25 04:27:53;;;;;;;27.88;13.30;;;;;;;11.81;100.00;100812.63;5043446;28;20175;-46
2022/10/25 04:30:19;;;;;;;22.40;13.90;;;;;;;11.81;100.00;100818.00;5030392;28;20195;-46
2022/10/25 04:32:45;;;;;;;32.53;14.13;;;;;;;11.88;100.00;100814.13;5039752;28;20259;-47
2022/10/25 04:35:11;;;;;;;24.42;14.10;;;;;;;11.87;100.00;100811.47;5035880;28;20315;-49
2022/10/25 04:37:37;;;;;;;28.17;14.25;;;;;;;11.89;100.00;100815.88;5041421;28;20645;-47
2022/10/25 04:40:03;;;;;;;33.42;15.65;;;;;;;11.86;100.00;100815.97;5044552;28;20215;-49
2022/10/25 04:42:32;;;;;;;29.27;14.93;;;;;;;11.88;100.00;100826.69;5037688;28;20196;-45
2022/10/25 04:44:57;;;;;;;26.85;15.00;;;;;;;11.90;100.00;100820.31;5028098;28;20229;-47
2022/10/25 04:47:22;;;;;;;26.02;14.95;;;;;;;11.89;100.00;100813.19;5044238;28;20598;-47
2022/10/25 04:49:48;;;;;;;30.13;14.85;;;;;;;11.90;100.00;100816.75;5042267;28;20196;-44
2022/10/25 04:52:13;;;;;;;25.90;15.50;;;;;;;11.90;100.00;100819.44;5035705;28;20643;-46
2022/10/25 04:54:39;;;;;;;33.05;15.93;;;;;;;11.90;100.00;100816.75;5037552;28;20287;-44
2022/10/25 04:57:06;;;;;;;31.35;15.48;;;;;;;11.91;100.00;100813.97;5044495;28;20792;-45
2022/10/25 04:59:31;;;;;;;30.80;16.77;;;;;;;11.90;100.00;100820.31;5036835;28;20179;-47
2022/10/25 05:01:56;;;;;;;27.25;15.25;;;;;;;11.89;100.00;100809.63;5038283;28;20208;-44
2022/10/25 05:04:22;;;;;;;31.45;16.52;;;;;;;11.88;100.00;100822.19;5039221;28;20188;-44
2022/10/25 05:06:47;;;;;;;32.42;16.75;;;;;;;11.91;100.00;100823.84;5038673;28;20677;-49
2022/10/25 05:09:13;;;;;;;30.35;16.52;;;;;;;11.94;100.00;100821.06;5034664;28;20225;-44
2022/10/25 05:11:38;;;;;;;27.95;16.00;;;;;;;11.93;100.00;100825.53;5042948;28;20184;-45
2022/10/25 05:14:04;;;;;;;30.25;16.13;;;;;;;11.93;100.00;100828.22;5040496;28;20215;-49
2022/10/25 05:16:33;;;;;;;31.77;15.77;;;;;;;11.95;100.00;100829.03;5040088;28;20180;-43
2022/10/25 05:19:00;;;;;;;26.92;15.50;;;;;;;11.99;100.00;100842.34;5039385;28;20180;-48
2022/10/25 05:21:29;;;;;;;31.55;16.55;;;;;;;11.98;100.00;100836.06;5039320;28;20183;-45
2022/10/25 05:23:56;;;;;;;29.45;16.08;;;;;;;12.03;100.00;100839.44;5038463;28;20256;-49
2022/10/25 05:26:22;;;;;;;25.52;15.60;;;;;;;12.02;100.00;100839.50;5044620;28;20172;-44
2022/10/25 05:28:50;;;;;;;28.42;17.23;;;;;;;12.02;100.00;100842.19;5034421;28;20623;-45
2022/10/25 05:31:22;;;;;;;32.03;17.20;;;;;;;12.01;100.00;100844.00;5042333;28;20555;-44
2022/10/25 05:33:52;;;;;;;35.50;17.40;;;;;;;12.01;100.00;100844.00;5022322;28;20195;-45
2022/10/25 05:36:18;;;;;;;27.92;16.67;;;;;;;12.02;100.00;100842.19;5038184;28;20175;-46
2022/10/25 05:38:44;;;;;;;33.90;17.45;;;;;;;12.02;100.00;100843.03;5041650;28;20533;-45
2022/10/25 05:41:15;;;;;;;23.88;15.85;;;;;;;12.05;100.00;100842.06;5045779;28;20175;-44
2022/10/25 05:43:42;;;;;;;27.17;16.17;;;;;;;12.16;100.00;100855.88;5039240;28;20203;-50
2022/10/25 05:46:10;;;;;;;26.33;15.35;;;;;;;12.10;100.00;100864.22;5042032;28;20176;-47
2022/10/25 05:48:36;;;;;;;24.48;15.30;;;;;;;12.09;100.00;100868.72;5040416;28;20278;-45
2022/10/25 05:51:12;;;;;;;24.55;15.27;;;;;;;12.10;100.00;100865.06;5044174;28;20599;-47
2022/10/25 05:53:43;;;;;;;24.13;16.10;;;;;;;12.07;100.00;100869.69;5036743;28;20176;-48
2022/10/25 05:56:08;;;;;;;25.60;15.88;;;;;;;12.10;100.00;100874.94;5041694;28;20699;-45
2022/10/25 05:58:33;;;;;;;26.52;15.90;;;;;;;12.09;100.00;100873.19;5040778;28;20191;-49
2022/10/25 06:00:59;;;;;;;28.35;17.10;;;;;;;12.09;100.00;100875.88;5039403;28;20654;-45
2022/10/25 06:03:25;;;;;;;33.33;16.38;;;;;;;12.09;100.00;100874.09;5037212;28;20663;-46
2022/10/25 06:05:51;;;;;;;31.00;17.90;;;;;;;12.08;100.00;100882.19;5034545;28;20187;-46
2022/10/25 06:08:16;;;;;;;32.70;17.00;;;;;;;12.09;100.00;100886.63;5031059;28;20172;-46
2022/10/25 06:10:43;;;;;;;30.70;17.63;;;;;;;12.11;100.00;100885.63;5030310;28;20184;-47
2022/10/25 06:13:09;;;;;;;30.25;18.00;;;;;;;12.09;100.00;100890.19;5031072;28;20689;-46
2022/10/25 06:15:37;;;;;;;34.00;18.75;;;;;;;12.11;100.00;100887.44;5030830;28;20278;-49
2022/10/25 06:18:03;;;;;;;36.70;17.65;;;;;;;12.09;100.00;100892.88;5031240;28;20251;-47
2022/10/25 06:20:28;;;;;;;27.63;17.45;;;;;;;12.06;100.00;100903.75;5030774;28;20198;-49
2022/10/25 06:22:54;;;;;;;32.88;16.25;;;;;;;12.06;100.00;100910.94;5030218;28;20215;-44
2022/10/25 06:25:19;;;;;;;29.40;17.40;;;;;;;12.01;100.00;100910.28;5012813;28;20187;-45
2022/10/25 06:27:45;;;;;;;27.58;16.90;;;;;;;12.00;100.00;100917.44;5030205;28;20179;-48
2022/10/25 06:30:10;;;;;;;28.35;17.02;;;;;;;12.02;100.00;100914.69;5052596;28;20218;-46
2022/10/25 06:32:37;;;;;;;27.58;17.48;;;;;;;12.00;100.00;100920.13;5050236;28;20687;-44
2022/10/25 06:35:03;;;;;;;31.20;18.52;;;;;;;12.00;100.00;100909.38;5049702;28;20677;-47
2022/10/25 06:37:28;;;;;;;27.58;16.60;;;;;;;12.09;100.00;100921.53;5050772;28;20171;-45
2022/10/25 06:39:54;;;;;;;35.42;18.85;;;;;;;12.00;100.00;100921.94;5050218;28;20183;-45
2022/10/25 06:42:19;;;;;;;28.88;18.83;;;;;;;12.02;100.00;100934.34;5043515;28;20200;-47
2022/10/25 06:44:45;;;;;;;37.13;21.58;;;;;;;12.01;100.00;100926.38;5030386;28;20196;-46
2022/10/25 06:47:10;;;;;;;38.03;20.55;;;;;;;12.03;100.00;100940.63;5030248;28;20218;-47
2022/10/25 06:49:36;;;;;;;38.92;21.80;;;;;;;12.01;100.00;100937.13;5012742;28;20196;-45
2022/10/25 06:52:01;;;;;;;33.42;21.10;;;;;;;12.05;100.00;100942.28;5030219;28;20191;-46
2022/10/25 06:54:27;;;;;;;45.28;22.35;;;;;;;12.02;100.00;100949.59;5030206;28;20247;-45
2022/10/25 06:56:52;;;;;;;39.25;22.27;;;;;;;12.02;100.00;100953.16;5030278;28;20246;-45
2022/10/25 06:59:19;;;;;;;38.72;21.55;;;;;;;12.09;100.00;100964.50;5030378;28;20549;-47
2022/10/25 07:01:45;;;;;;;38.80;24.35;;;;;;;12.10;100.00;100967.13;5030178;28;20203;-45
2022/10/25 07:04:11;;;;;;;44.63;25.10;;;;;;;12.14;100.00;100973.25;5029717;28;20779;-46
2022/10/25 07:06:36;;;;;;;39.90;23.50;;;;;;;12.18;100.00;100955.19;5053489;28;20249;-50
2022/10/25 07:09:04;;;;;;;37.08;21.60;;;;;;;12.14;100.00;100965.19;5068868;28;20555;-46
2022/10/25 07:11:31;;;;;;;35.97;22.48;;;;;;;12.09;100.00;100965.41;5070047;28;20167;-45
2022/10/25 07:13:58;;;;;;;33.03;20.67;;;;;;;12.10;100.00;100977.88;5069358;28;20216;-45
2022/10/25 07:16:25;;;;;;;42.17;20.95;;;;;;;12.11;100.00;100968.91;5063848;28;20207;-44
2022/10/25 07:18:51;;;;;;;37.97;20.05;;;;;;;12.17;100.00;100981.19;5030379;28;20175;-46
2022/10/25 07:21:21;;;;;;;38.20;20.80;;;;;;;12.15;100.00;100980.38;5013389;28;20187;-47
2022/10/25 07:23:48;;;;;;;36.83;20.75;;;;;;;12.16;100.00;100982.13;5025580;28;20713;-49
2022/10/25 07:26:23;;;;;;;40.78;21.30;;;;;;;12.14;100.00;100979.50;5036998;28;20313;-49
2022/10/25 07:28:50;;;;;;;41.40;20.13;;;;;;;12.15;100.00;100975.00;5035165;28;20187;-48
2022/10/25 07:31:20;;;;;;;37.15;20.02;;;;;;;12.15;100.00;100977.69;5016601;28;20195;-50
2022/10/25 07:33:47;;;;;;;36.03;19.92;;;;;;;12.15;100.00;100981.22;5036223;28;20326;-49
2022/10/25 07:36:12;;;;;;;38.47;19.60;;;;;;;12.19;100.00;100986.50;5036969;28;20175;-50
2022/10/25 07:38:38;;;;;;;37.00;18.55;;;;;;;12.28;100.00;100986.97;5035938;28;20203;-48
2022/10/25 07:41:05;;;;;;;34.47;18.70;;;;;;;12.27;100.00;100982.53;5020795;28;20187;-48
2022/10/25 07:43:31;;;;;;;37.65;19.33;;;;;;;12.27;100.00;100987.91;5019806;28;20247;-50
2022/10/25 07:45:57;;;;;;;38.65;18.92;;;;;;;12.31;100.00;100984.16;5034812;28;20187;-50
2022/10/25 07:48:23;;;;;;;32.20;18.83;;;;;;;12.33;100.00;100990.34;5038243;28;20171;-49
2022/10/25 07:50:48;;;;;;;36.20;18.50;;;;;;;12.36;100.00;101003.63;5033209;28;20184;-48
2022/10/25 07:53:14;;;;;;;31.08;17.75;;;;;;;12.36;100.00;101000.06;5039382;28;20291;-47
2022/10/25 07:55:39;;;;;;;30.42;17.05;;;;;;;12.39;100.00;101004.44;5037675;28;20198;-47
2022/10/25 07:58:09;;;;;;;35.45;17.98;;;;;;;12.41;100.00;100994.50;5035063;28;20194;-48
2022/10/25 08:00:35;;;;;;;34.40;17.75;;;;;;;12.43;100.00;101003.38;5012262;28;20174;-47
2022/10/25 08:03:01;;;;;;;34.85;17.92;;;;;;;12.41;100.00;101000.75;5030638;28;20262;-45
2022/10/25 08:05:27;;;;;;;31.08;17.23;;;;;;;12.47;100.00;101018.44;5030903;28;20365;-44
2022/10/25 08:07:52;;;;;;;29.98;17.13;;;;;;;12.48;100.00;100994.16;5016478;28;20340;-43
2022/10/25 08:10:20;;;;;;;31.65;16.65;;;;;;;12.55;100.00;101005.50;5050234;28;20622;-43
2022/10/25 08:12:49;;;;;;;29.83;16.80;;;;;;;12.57;100.00;101014.38;5050584;28;20187;-47
2022/10/25 08:15:16;;;;;;;32.88;16.95;;;;;;;12.60;100.00;101008.03;5040808;28;20212;-46
2022/10/25 08:17:42;;;;;;;29.90;16.20;;;;;;;12.64;100.00;101010.50;5049858;28;20245;-44
2022/10/25 08:20:07;;;;;;;28.95;14.95;;;;;;;12.61;100.00;101007.94;5049806;28;20175;-44
2022/10/25 08:22:33;;;;;;;27.27;15.15;;;;;;;12.70;100.00;101007.56;5050199;28;20207;-42
2022/10/25 08:24:59;;;;;;;26.60;14.73;;;;;;;12.68;100.00;101012.13;5051759;28;20194;-44
2022/10/25 08:27:24;;;;;;;26.90;16.15;;;;;;;12.75;100.00;101016.28;5044431;28;20293;-45
2022/10/25 08:29:50;;;;;;;29.35;14.43;;;;;;;12.93;100.00;101011.88;5049512;28;20179;-46
2022/10/25 08:32:15;;;;;;;29.27;14.20;;;;;;;12.82;100.00;101002.56;5049052;28;20694;-45
2022/10/25 08:34:41;;;;;;;25.10;13.20;;;;;;;12.96;100.00;101008.19;5027210;28;20685;-47
2022/10/25 08:37:09;;;;;;;28.65;13.52;;;;;;;12.98;100.00;101011.69;5046479;28;20243;-45
2022/10/25 08:39:35;;;;;;;24.95;11.55;;;;;;;12.93;100.00;101014.56;5044254;28;20638;-46
2022/10/25 08:42:01;;;;;;;20.38;11.48;;;;;;;12.97;100.00;101018.00;5051474;28;20229;-44
2022/10/25 08:44:54;;;;;;;27.02;11.68;;;;;;;12.98;100.00;101009.84;5020101;28;20246;-47
2022/10/25 08:47:32;;;;;;;21.95;11.00;;;;;;;13.08;100.00;101021.09;5040109;28;20669;-46
2022/10/25 08:50:09;;;;;;;20.50;10.52;;;;;;;13.10;100.00;101019.19;5040919;28;20188;-45
2022/10/25 08:52:44;;;;;;;21.15;10.07;;;;;;;13.10;100.00;101024.56;5048287;28;20171;-45
2022/10/25 08:55:22;;;;;;;20.50;10.55;;;;;;;12.93;100.00;101021.78;5024809;28;20219;-44
2022/10/25 08:57:49;;;;;;;21.85;10.23;;;;;;;12.92;100.00;101025.41;5037569;28;20229;-47
2022/10/25 09:00:21;;;;;;;24.65;10.80;;;;;;;12.95;100.00;101031.53;5052820;28;20350;-45
2022/10/25 09:02:49;;;;;;;21.05;10.60;;;;;;;12.92;100.00;101025.41;5035631;28;20204;-45
2022/10/25 09:05:38;;;;;;;20.85;9.93;;;;;;;12.89;100.00;101039.84;5032926;28;20196;-45
2022/10/25 09:08:36;;;;;;;17.98;9.63;;;;;;;12.94;100.00;101031.56;5014858;28;20172;-48
2022/10/25 09:11:29;;;;;;;17.35;9.13;;;;;;;13.01;100.00;101035.75;5041997;28;20179;-46
2022/10/25 09:14:07;;;;;;;23.33;10.30;;;;;;;12.99;100.00;101034.97;5032474;28;20750;-45
2022/10/25 09:16:51;;;;;;;20.50;9.25;;;;;;;12.97;100.00;101039.53;5032851;28;20180;-47
2022/10/25 09:19:33;;;;;;;22.20;10.13;;;;;;;13.06;100.00;101043.63;5041756;28;20190;-46
2022/10/25 09:22:05;;;;;;;17.73;9.45;;;;;;;13.16;100.00;101053.00;5017933;28;20704;-46
2022/10/25 09:24:33;;;;;;;17.80;9.05;;;;;;;13.24;100.00;101052.66;5052089;28;20201;-48
2022/10/25 09:27:26;;;;;;;24.70;9.60;;;;;;;13.40;100.00;101053.72;5052482;28;20649;-46
2022/10/25 09:29:59;;;;;;;19.88;9.40;;;;;;;13.41;100.00;101054.63;5049363;28;20195;-47
2022/10/25 09:32:36;;;;;;;22.67;9.70;;;;;;;13.36;100.00;101060.22;5030927;28;20549;-47
2022/10/25 09:35:04;;;;;;;18.42;8.45;;;;;;;13.35;100.00;101058.47;5031802;28;20239;-45
2022/10/25 09:37:40;;;;;;;22.25;9.02;;;;;;;13.36;100.00;101060.22;5031994;28;20251;-43
2022/10/25 09:40:13;;;;;;;21.83;8.65;;;;;;;13.30;100.00;101057.81;5032241;28;20192;-48
2022/10/25 09:42:45;;;;;;;15.07;7.55;;;;;;;13.33;100.00;101063.91;5032064;28;20262;-46
2022/10/25 09:45:42;;;;;;;17.33;7.78;;;;;;;13.20;100.00;101063.53;5031918;28;20192;-46
2022/10/25 09:48:14;;;;;;;15.32;6.78;;;;;;;13.26;100.00;101064.22;5026712;28;20261;-45
2022/10/25 09:50:46;;;;;;;18.90;7.32;;;;;;;13.18;100.00;101073.53;5032293;28;20574;-43
2022/10/25 09:53:14;;;;;;;18.13;6.63;;;;;;;13.22;100.00;101065.31;5031553;28;20622;-45
2022/10/25 09:55:57;;;;;;;17.20;6.38;;;;;;;13.22;100.00;101065.31;5031346;28;20249;-43
2022/10/25 09:58:29;;;;;;;13.43;4.68;;;;;;;13.11;100.00;101058.59;5031762;28;20263;-44
2022/10/25 10:00:59;;;;;;;13.10;4.47;;;;;;;13.15;100.00;101056.66;5030568;28;20251;-48
2022/10/25 10:03:31;;;;;;;11.50;4.32;;;;;;;13.13;100.00;101072.84;5031274;28;20184;-47
2022/10/25 10:06:00;;;;;;;16.45;4.47;;;;;;;13.12;100.00;101078.31;5031630;28;20192;-46
2022/10/25 10:08:26;;;;;;;14.00;4.15;;;;;;;13.12;100.00;101078.31;5030472;28;20594;-45
2022/10/25 10:10:53;;;;;;;14.57;4.28;;;;;;;13.25;100.00;101079.50;5031454;28;20198;-50
2022/10/25 10:13:43;;;;;;;13.82;3.85;;;;;;;13.32;100.00;101077.44;5031450;28;20164;-46
2022/10/25 10:16:34;;;;;;;12.23;4.68;;;;;;;13.31;100.00;101081.06;5031648;28;20246;-45
2022/10/25 10:19:19;;;;;;;18.48;4.93;;;;;;;13.46;100.00;101085.75;5031704;28;20701;-48
2022/10/25 10:21:56;;;;;;;12.35;3.45;;;;;;;13.42;100.00;101084.13;5013942;28;20306;-45
2022/10/25 10:24:24;;;;;;;9.57;3.10;;;;;;;13.53;100.00;101084.50;5031364;28;20491;-46
2022/10/25 10:26:54;;;;;;;17.30;3.60;;;;;;;13.54;100.00;101080.88;5031428;28;20176;-46
2022/10/25 10:29:22;;;;;;;11.57;3.55;;;;;;;13.60;100.00;101082.44;5031444;28;20163;-46
2022/10/25 10:31:53;;;;;;;10.95;3.47;;;;;;;13.63;100.00;101070.63;5031019;28;20160;-42
2022/10/25 10:34:43;;;;;;;11.00;2.92;;;;;;;13.84;100.00;101072.31;5031185;28;20203;-46
2022/10/25 10:37:14;;;;;;;17.88;3.72;;;;;;;13.86;100.00;101065.00;5022398;28;20196;-47
2022/10/25 10:40:21;;;;;;;10.55;3.33;;;;;;;13.82;100.00;101079.59;5031254;28;20588;-47
2022/10/25 10:42:46;;;;;;;13.13;2.72;;;;;;;13.87;100.00;101074.84;5029548;28;20242;-50
2022/10/25 10:45:17;;;;;;;15.57;3.05;;;;;;;13.88;100.00;101079.28;5030993;28;20712;-45
2022/10/25 10:47:48;;;;;;;12.68;2.58;;;;;;;13.87;100.00;101091.00;5012324;28;20180;-45
2022/10/25 10:50:17;;;;;;;12.05;3.40;;;;;;;13.93;100.00;101074.56;5030849;28;20325;-45
2022/10/25 10:52:44;;;;;;;14.00;3.50;;;;;;;13.90;100.00;101096.25;5030957;28;20168;-46
2022/10/25 10:55:27;;;;;;;15.57;3.28;;;;;;;13.80;100.00;101093.13;5030881;28;20202;-44
2022/10/25 10:57:55;;;;;;;13.55;2.97;;;;;;;13.83;100.00;101097.50;5030692;28;20577;-47
2022/10/25 11:00:28;;;;;;;16.67;3.22;;;;;;;13.87;100.00;101096.41;5030837;28;20222;-44
2022/10/25 11:02:54;;;;;;;12.90;3.08;;;;;;;13.71;100.00;101095.34;5030570;28;20180;-46
2022/10/25 11:05:28;;;;;;;10.10;2.58;;;;;;;13.72;100.00;101107.91;5030439;28;20199;-50
2022/10/25 11:07:55;;;;;;;11.38;2.70;;;;;;;13.88;100.00;101108.03;5030762;28;20178;-49
2022/10/25 11:10:25;;;;;;;16.42;3.03;;;;;;;14.03;100.00;101101.91;5030699;28;20160;-44
2022/10/25 11:13:16;;;;;;;11.10;2.90;;;;;;;14.31;100.00;101096.06;5030893;28;20172;-44
2022/10/25 11:15:41;;;;;;;10.80;2.35;;;;;;;14.37;100.00;101105.66;5030537;28;20704;-44